createdAt,value
2019-05-03T00:00:42.557Z,25.17
2019-05-03T00:03:12.740Z,27.67
2019-05-03T00:05:42.811Z,27.85
2019-05-03T00:08:12.637Z,30.32
2019-05-03T00:10:42.501Z,28.62
2019-05-03T00:13:12.507Z,29.57
2019-05-03T00:15:42.926Z,30.05
2019-05-03T00:18:11.761Z,27.25
2019-05-03T00:20:41.988Z,28.52
2019-05-03T00:23:12.009Z,33.78
2019-05-03T00:25:41.818Z,32.13
2019-05-03T00:28:10.841Z,31.27
2019-05-03T00:30:39.236Z,31.25
2019-05-03T00:33:07.628Z,31.80
2019-05-03T00:35:43.522Z,33.25
2019-05-03T00:38:12.798Z,31.55
2019-05-03T00:40:41.703Z,29.48
2019-05-03T00:43:11.580Z,30.52
2019-05-03T00:45:42.135Z,37.20
2019-05-03T00:48:10.140Z,35.45
2019-05-03T00:50:38.493Z,38.63
2019-05-03T00:53:06.880Z,33.08
2019-05-03T00:55:35.247Z,41.13
2019-05-03T00:58:03.686Z,38.83
2019-05-03T01:00:32.570Z,37.33
2019-05-03T01:03:02.140Z,41.33
2019-05-03T01:05:32.952Z,43.48
2019-05-03T01:08:01.974Z,38.50
2019-05-03T01:10:30.489Z,42.33
2019-05-03T01:12:58.852Z,33.15
2019-05-03T01:15:32.047Z,34.47
2019-05-03T01:18:02.100Z,36.70
2019-05-03T01:20:31.997Z,33.38
2019-05-03T01:23:02.076Z,35.13
2019-05-03T01:25:35.145Z,37.17
2019-05-03T01:28:01.555Z,36.95
2019-05-03T01:30:31.950Z,29.07
2019-05-03T01:33:02.670Z,33.67
2019-05-03T01:35:32.303Z,33.27
2019-05-03T01:38:02.596Z,33.55
2019-05-03T01:40:32.574Z,34.35
2019-05-03T01:43:02.219Z,34.40
2019-05-03T01:45:31.833Z,34.47
2019-05-03T01:48:02.118Z,38.75
2019-05-03T01:50:47.544Z,38.00
2019-05-03T01:53:17.620Z,34.05
2019-05-03T01:55:52.711Z,34.83
2019-05-03T01:58:24.372Z,31.25
2019-05-03T02:00:54.424Z,31.97
2019-05-03T02:03:24.448Z,29.70
2019-05-03T02:05:54.368Z,29.00
2019-05-03T02:08:22.710Z,33.48
2019-05-03T02:10:51.764Z,31.17
2019-05-03T02:13:20.323Z,32.80
2019-05-03T02:15:48.696Z,31.15
2019-05-03T02:18:17.074Z,32.25
2019-05-03T02:20:45.428Z,30.15
2019-05-03T02:23:13.782Z,33.67
2019-05-03T02:25:42.167Z,30.50
2019-05-03T02:28:12.490Z,32.10
2019-05-03T02:30:44.197Z,32.13
2019-05-03T02:33:13.456Z,31.62
2019-05-03T02:35:42.974Z,32.48
2019-05-03T02:38:12.997Z,32.05
2019-05-03T02:40:42.915Z,33.53
2019-05-03T02:43:13.275Z,31.07
2019-05-03T02:45:51.402Z,35.60
2019-05-03T02:48:25.500Z,34.90
2019-05-03T02:50:56.037Z,36.30
2019-05-03T02:53:25.818Z,36.42
2019-05-03T02:55:56.068Z,35.30
2019-05-03T02:58:25.495Z,35.28
2019-05-03T03:00:56.991Z,35.95
2019-05-03T03:03:26.218Z,32.90
2019-05-03T03:05:56.553Z,25.80
2019-05-03T03:08:27.648Z,26.45
2019-05-03T03:11:02.113Z,26.20
2019-05-03T03:13:31.694Z,24.82
2019-05-03T03:16:02.962Z,24.40
2019-05-03T03:18:36.375Z,31.07
2019-05-03T03:21:05.890Z,24.47
2019-05-03T03:23:49.638Z,24.35
2019-05-03T03:26:33.304Z,22.82
2019-05-03T03:28:50.937Z,28.37
2019-05-03T03:31:37.865Z,26.00
2019-05-03T03:34:08.620Z,25.10
2019-05-03T03:36:59.271Z,26.62
2019-05-03T03:39:16.636Z,25.45
2019-05-03T03:41:45.670Z,27.75
2019-05-03T03:44:15.323Z,22.48
2019-05-03T03:46:45.426Z,28.77
2019-05-03T03:49:15.530Z,26.93
2019-05-03T03:51:45.552Z,28.43
2019-05-03T03:54:17.365Z,25.40
2019-05-03T03:56:56.148Z,27.70
2019-05-03T03:59:15.986Z,26.62
2019-05-03T04:01:45.702Z,27.80
2019-05-03T04:04:16.089Z,31.05
2019-05-03T04:06:46.613Z,29.30
2019-05-03T04:09:16.117Z,29.70
2019-05-03T04:11:46.347Z,28.97
2019-05-03T04:14:16.506Z,30.27
2019-05-03T04:16:50.767Z,33.58
2019-05-03T04:19:20.822Z,31.70
2019-05-03T04:21:49.183Z,32.17
2019-05-03T04:24:17.528Z,36.83
2019-05-03T04:26:45.920Z,35.30
2019-05-03T04:29:16.134Z,33.28
2019-05-03T04:31:45.767Z,38.58
2019-05-03T04:34:16.279Z,34.98
2019-05-03T04:36:46.161Z,31.17
2019-05-03T04:39:19.166Z,35.15
2019-05-03T04:41:45.353Z,34.83
2019-05-03T04:44:15.490Z,33.67
2019-05-03T04:46:46.262Z,35.20
2019-05-03T04:49:15.173Z,35.80
2019-05-03T04:51:46.447Z,32.73
2019-05-03T04:54:25.244Z,32.05
2019-05-03T04:56:56.381Z,31.45
2019-05-03T04:59:25.499Z,34.55
2019-05-03T05:01:55.993Z,31.25
2019-05-03T05:04:25.402Z,29.82
2019-05-03T05:06:55.527Z,27.93
2019-05-03T05:09:25.832Z,28.47
2019-05-03T05:11:54.945Z,29.27
2019-05-03T05:14:25.675Z,32.33
2019-05-03T05:17:06.162Z,28.23
2019-05-03T05:19:42.242Z,28.23
2019-05-03T05:22:15.624Z,30.27
2019-05-03T05:24:44.967Z,25.12
2019-05-03T05:27:15.168Z,27.65
2019-05-03T05:29:45.070Z,27.52
2019-05-03T05:32:14.469Z,26.50
2019-05-03T05:34:42.920Z,31.68
2019-05-03T05:37:14.526Z,28.10
2019-05-03T05:39:44.655Z,26.60
2019-05-03T05:42:16.344Z,23.90
2019-05-03T05:44:45.468Z,24.52
2019-05-03T05:47:15.601Z,27.07
2019-05-03T05:49:48.300Z,25.65
2019-05-03T05:52:16.609Z,28.05
2019-05-03T05:54:46.668Z,23.92
2019-05-03T05:57:34.656Z,28.02
2019-05-03T06:00:08.283Z,25.55
2019-05-03T06:02:36.673Z,24.43
2019-05-03T06:05:06.110Z,41.37
2019-05-03T06:07:42.037Z,21.95
2019-05-03T06:10:21.211Z,26.90
2019-05-03T06:12:51.174Z,25.00
2019-05-03T06:15:21.135Z,27.20
2019-05-03T06:17:51.099Z,25.23
2019-05-03T06:20:24.575Z,25.37
2019-05-03T06:22:54.975Z,23.83
2019-05-03T06:25:26.601Z,22.02
2019-05-03T06:27:55.199Z,21.33
2019-05-03T06:30:30.914Z,25.95
2019-05-03T06:32:59.260Z,20.75
2019-05-03T06:35:27.852Z,23.18
2019-05-03T06:37:56.730Z,21.42
2019-05-03T06:40:26.067Z,19.07
2019-05-03T06:43:02.895Z,25.65
2019-05-03T06:45:25.154Z,19.77
2019-05-03T06:47:55.089Z,22.67
2019-05-03T06:50:27.526Z,22.20
2019-05-03T06:52:54.794Z,20.60
2019-05-03T06:55:24.746Z,20.10
2019-05-03T06:57:54.595Z,16.35
2019-05-03T07:00:35.123Z,21.55
2019-05-03T07:03:05.253Z,19.35
2019-05-03T07:05:35.486Z,21.10
2019-05-03T07:08:22.045Z,19.37
2019-05-03T07:10:52.390Z,19.15
2019-05-03T07:13:20.780Z,16.00
2019-05-03T07:15:49.109Z,17.53
2019-05-03T07:18:17.417Z,18.60
2019-05-03T07:20:50.340Z,18.73
2019-05-03T07:23:18.690Z,18.65
2019-05-03T07:25:46.998Z,17.23
2019-05-03T07:28:15.292Z,19.07
2019-05-03T07:30:45.375Z,18.15
2019-05-03T07:33:21.259Z,18.43
2019-05-03T07:35:49.595Z,19.82
2019-05-03T07:38:17.904Z,18.15
2019-05-03T07:40:46.305Z,20.72
2019-05-03T07:43:14.927Z,19.70
2019-05-03T07:45:44.657Z,21.55
2019-05-03T07:48:14.934Z,22.30
2019-05-03T07:50:44.715Z,21.75
2019-05-03T07:53:15.004Z,22.48
2019-05-03T07:55:59.926Z,19.60
2019-05-03T07:58:29.914Z,23.95
2019-05-03T08:01:06.291Z,21.87
2019-05-03T08:03:29.985Z,22.22
2019-05-03T08:05:58.744Z,19.07
2019-05-03T08:08:27.028Z,20.48
2019-05-03T08:10:55.350Z,26.23
2019-05-03T08:16:35.324Z,21.27
2019-05-03T08:19:04.884Z,23.92
2019-05-03T08:21:38.164Z,23.00
2019-05-03T08:24:04.558Z,23.50
2019-05-03T08:26:35.056Z,23.02
2019-05-03T08:29:15.238Z,27.52
2019-05-03T08:31:37.851Z,25.65
2019-05-03T08:34:15.356Z,27.65
2019-05-03T08:37:05.225Z,23.50
2019-05-03T08:39:35.558Z,25.05
2019-05-03T08:42:08.207Z,25.12
2019-05-03T08:44:36.911Z,22.15
2019-05-03T08:47:05.383Z,25.40
2019-05-03T08:49:34.734Z,22.62
2019-05-03T08:52:05.276Z,21.55
2019-05-03T08:54:34.729Z,19.57
2019-05-03T08:57:03.390Z,21.82
2019-05-03T08:59:32.738Z,20.75
2019-05-03T09:02:03.506Z,20.27
2019-05-03T09:04:37.403Z,19.55
2019-05-03T09:07:01.614Z,14.78
2019-05-03T09:09:34.867Z,18.42
2019-05-03T09:12:04.715Z,18.02
2019-05-03T09:14:42.544Z,18.55
2019-05-03T09:17:04.959Z,21.27
2019-05-03T09:19:34.685Z,16.55
2019-05-03T09:22:05.956Z,19.07
2019-05-03T09:24:35.158Z,17.50
2019-05-03T09:27:05.102Z,16.30
2019-05-03T09:29:41.086Z,13.90
2019-05-03T09:32:05.163Z,13.55
2019-05-03T09:34:35.157Z,11.38
2019-05-03T09:37:04.773Z,14.28
2019-05-03T09:39:35.310Z,12.50
2019-05-03T09:42:04.725Z,13.43
2019-05-03T09:44:35.047Z,11.25
2019-05-03T09:47:05.396Z,11.73
2019-05-03T09:49:34.767Z,10.98
2019-05-03T09:52:07.977Z,10.08
2019-05-03T09:54:41.036Z,11.65
2019-05-03T09:57:09.325Z,9.23
2019-05-03T09:59:37.634Z,11.57
2019-05-03T10:02:06.313Z,8.53
2019-05-03T10:04:36.678Z,11.83
2019-05-03T10:07:04.748Z,11.05
2019-05-03T10:09:35.410Z,9.95
2019-05-03T10:12:05.564Z,10.03
2019-05-03T10:14:34.132Z,10.10
2019-05-03T10:17:09.886Z,8.23
2019-05-03T10:19:40.499Z,10.00
2019-05-03T10:22:08.293Z,10.32
2019-05-03T10:24:36.620Z,8.55
2019-05-03T10:27:05.585Z,8.03
2019-05-03T10:29:34.094Z,12.33
2019-05-03T10:32:04.074Z,11.68
2019-05-03T10:34:32.366Z,10.70
2019-05-03T10:37:00.659Z,11.57
2019-05-03T10:39:28.989Z,10.93
2019-05-03T10:41:57.288Z,7.47
2019-05-03T10:44:25.897Z,9.60
2019-05-03T10:46:55.946Z,15.55
2019-05-03T10:49:24.571Z,11.97
2019-05-03T10:51:54.910Z,8.53
2019-05-03T10:54:23.457Z,12.23
2019-05-03T10:57:02.694Z,11.10
2019-05-03T10:59:31.071Z,10.23
2019-05-03T11:02:01.027Z,12.05
2019-05-03T11:04:30.282Z,14.25
2019-05-03T11:06:58.656Z,13.75
2019-05-03T11:09:26.959Z,11.85
2019-05-03T11:11:55.658Z,11.93
2019-05-03T11:14:25.400Z,11.53
2019-05-03T11:16:55.292Z,12.95
2019-05-03T11:19:25.464Z,15.83
2019-05-03T11:21:54.773Z,12.28
2019-05-03T11:24:25.151Z,13.18
2019-05-03T11:26:55.816Z,17.30
2019-05-03T11:29:24.756Z,18.42
2019-05-03T11:31:57.622Z,17.90
2019-05-03T11:34:30.350Z,14.95
2019-05-03T11:37:06.353Z,8.78
2019-05-03T11:39:34.674Z,13.48
2019-05-03T11:42:04.665Z,15.80
2019-05-03T11:44:39.161Z,18.42
2019-05-03T11:47:08.192Z,14.40
2019-05-03T11:49:36.643Z,12.20
2019-05-03T11:52:06.549Z,13.83
2019-05-03T12:17:07.741Z,14.43
2019-05-03T12:19:12.749Z,15.20
2019-05-03T12:21:31.360Z,15.50
2019-05-03T12:24:16.914Z,15.30
2019-05-03T12:26:47.060Z,13.10
2019-05-03T12:29:15.505Z,19.82
2019-05-03T12:31:45.582Z,14.38
2019-05-03T12:34:15.928Z,16.67
2019-05-03T12:36:44.139Z,15.88
2019-05-03T12:39:24.197Z,14.98
2019-05-03T12:41:42.549Z,18.35
2019-05-03T12:44:10.872Z,13.98
2019-05-03T12:46:39.187Z,15.80
2019-05-03T12:49:07.499Z,15.13
2019-05-03T12:51:35.803Z,14.07
2019-05-03T12:54:04.861Z,16.07
2019-05-03T12:56:35.738Z,19.95
2019-05-03T12:59:05.782Z,15.20
2019-05-03T13:01:41.890Z,17.07
2019-05-03T13:04:24.701Z,15.55
2019-05-03T13:07:10.938Z,16.02
2019-05-03T13:09:39.230Z,15.05
2019-05-03T13:12:09.104Z,18.60
2019-05-03T13:14:37.446Z,16.55
2019-05-03T13:17:05.757Z,18.23
2019-05-03T13:19:34.929Z,17.87
2019-05-03T13:22:03.393Z,17.27
2019-05-03T13:24:31.713Z,18.80
2019-05-03T13:27:00.019Z,18.07
2019-05-03T13:29:28.363Z,17.90
2019-05-03T13:32:01.900Z,15.33
2019-05-03T13:34:26.679Z,20.85
2019-05-03T13:36:55.065Z,16.65
2019-05-03T13:39:26.332Z,18.15
2019-05-03T13:41:54.942Z,15.30
2019-05-03T13:44:24.778Z,16.73
2019-05-03T13:46:55.193Z,18.57
2019-05-03T13:49:26.188Z,18.35
2019-05-03T13:51:53.821Z,16.82
2019-05-03T13:54:22.422Z,16.87
2019-05-03T13:56:50.755Z,17.70
2019-05-03T13:59:22.101Z,17.23
2019-05-03T14:01:49.165Z,14.60
2019-05-03T14:04:17.475Z,16.87
2019-05-03T14:17:16.424Z,16.37
2019-05-03T14:19:45.212Z,19.67
2019-05-03T14:22:15.591Z,18.00
2019-05-03T14:24:44.579Z,16.07
2019-05-03T14:27:14.467Z,13.72
2019-05-03T14:29:42.918Z,16.57
2019-05-03T14:32:11.268Z,15.93
2019-05-03T14:34:39.570Z,14.98
2019-05-03T14:37:07.877Z,17.23
2019-05-03T14:39:36.249Z,13.95
2019-05-03T14:42:04.825Z,14.45
2019-05-03T14:44:35.571Z,14.55
2019-05-03T14:47:05.616Z,17.07
2019-05-03T14:49:34.611Z,14.57
2019-05-03T14:52:05.412Z,16.77
2019-05-03T14:54:34.837Z,16.10
2019-05-03T14:57:04.801Z,17.05
2019-05-03T14:59:45.319Z,16.12
2019-05-03T15:02:21.510Z,14.98
2019-05-03T15:04:50.264Z,17.67
2019-05-03T15:10:02.218Z,19.32
2019-05-03T15:12:30.525Z,10.15
2019-05-03T15:14:58.825Z,16.77
2019-05-03T15:17:27.154Z,14.98
2019-05-03T15:19:55.461Z,15.58
2019-05-03T15:22:25.318Z,16.00
2019-05-03T15:24:54.559Z,16.12
2019-05-03T15:27:24.846Z,16.00
2019-05-03T15:29:55.355Z,16.05
2019-05-03T15:32:23.386Z,14.95
2019-05-03T15:34:51.695Z,15.88
2019-05-03T15:37:20.019Z,14.93
2019-05-03T15:39:48.624Z,15.60
2019-05-03T15:42:18.002Z,15.00
2019-05-03T15:44:48.276Z,14.98
2019-05-03T15:47:18.298Z,13.55
2019-05-03T15:49:46.642Z,14.90
2019-05-03T15:52:15.241Z,13.78
2019-05-03T15:54:44.477Z,13.55
2019-05-03T15:57:14.471Z,13.68
2019-05-03T15:59:44.537Z,16.00
2019-05-03T16:02:15.097Z,11.90
2019-05-03T16:04:44.797Z,15.08
2019-05-03T16:07:14.434Z,13.62
2019-05-03T16:09:44.469Z,15.13
2019-05-03T16:12:14.553Z,14.63
2019-05-03T16:14:44.523Z,16.70
2019-05-03T16:17:14.614Z,15.93
2019-05-03T16:19:47.370Z,12.63
2019-05-03T16:22:14.368Z,13.53
2019-05-03T16:24:44.756Z,13.72
2019-05-03T16:27:29.967Z,13.18
2019-05-03T16:29:58.882Z,13.93
2019-05-03T16:32:27.166Z,14.85
2019-05-03T16:34:55.477Z,13.30
2019-05-03T16:37:25.484Z,13.72
2019-05-03T16:39:54.768Z,13.05
2019-05-03T16:42:24.636Z,13.93
2019-05-03T16:44:54.887Z,12.55
2019-05-03T16:47:24.954Z,11.85
2019-05-03T16:49:53.385Z,12.40
2019-05-03T16:52:21.707Z,14.23
2019-05-03T16:54:50.396Z,10.80
2019-05-03T16:57:18.731Z,12.63
2019-05-03T16:59:47.056Z,14.45
2019-05-03T17:02:17.382Z,14.25
2019-05-03T17:05:02.498Z,14.45
2019-05-03T17:07:32.437Z,12.37
2019-05-03T17:10:07.483Z,11.90
2019-05-03T17:12:37.298Z,13.70
2019-05-03T17:15:08.454Z,12.90
2019-05-03T17:17:36.762Z,10.43
2019-05-03T17:20:08.206Z,15.80
2019-05-03T17:22:36.861Z,15.50
2019-05-03T17:25:06.562Z,13.80
2019-05-03T17:27:35.085Z,11.50
2019-05-03T17:30:05.833Z,16.45
2019-05-03T17:32:35.081Z,16.50
2019-05-03T17:35:05.744Z,14.80
2019-05-03T17:37:34.696Z,14.78
2019-05-03T17:40:07.663Z,13.88
2019-05-03T17:42:54.726Z,15.40
2019-05-03T17:45:25.364Z,18.12
2019-05-03T17:47:54.871Z,14.53
2019-05-03T17:50:23.411Z,14.50
2019-05-03T17:52:54.594Z,13.40
2019-05-03T17:55:36.459Z,14.47
2019-05-03T17:58:09.297Z,14.23
2019-05-03T18:00:39.271Z,16.07
2019-05-03T18:03:08.745Z,19.70
2019-05-03T18:05:55.211Z,15.83
2019-05-03T18:08:35.541Z,15.70
2019-05-03T18:11:11.770Z,13.68
2019-05-03T18:13:40.087Z,14.07
2019-05-03T18:16:08.387Z,14.13
2019-05-03T18:18:36.728Z,12.13
2019-05-03T18:21:05.039Z,16.75
2019-05-03T18:23:35.012Z,14.90
2019-05-03T18:26:05.158Z,17.17
2019-05-03T18:28:35.366Z,16.73
2019-05-03T18:31:05.408Z,14.65
2019-05-03T18:33:33.837Z,17.17
2019-05-03T18:36:02.142Z,12.73
2019-05-03T18:38:32.106Z,15.87
2019-05-03T18:41:00.797Z,13.98
2019-05-03T18:43:34.587Z,13.77
2019-05-03T18:46:21.156Z,13.48
2019-05-03T18:48:49.476Z,15.03
2019-05-03T18:51:17.791Z,13.48
2019-05-03T18:53:46.119Z,14.15
2019-05-03T18:56:14.821Z,15.30
2019-05-03T18:58:44.866Z,14.33
2019-05-03T19:01:14.798Z,15.13
2019-05-03T19:03:45.234Z,14.73
2019-05-03T19:06:13.559Z,17.13
2019-05-03T19:08:44.765Z,17.15
2019-05-03T19:11:27.291Z,14.18
2019-05-03T19:13:59.733Z,15.75
2019-05-03T19:16:29.851Z,14.63
2019-05-03T19:18:58.141Z,14.63
2019-05-03T19:21:26.481Z,15.57
2019-05-03T19:23:54.784Z,16.77
2019-05-03T19:26:24.816Z,16.00
2019-05-03T19:28:54.879Z,17.77
2019-05-03T19:31:25.113Z,16.52
2019-05-03T19:33:55.040Z,14.55
2019-05-03T19:36:23.868Z,17.48
2019-05-03T19:38:52.230Z,17.77
2019-05-03T19:41:20.522Z,17.70
2019-05-03T19:43:48.866Z,17.43
2019-05-03T19:46:17.187Z,18.35
2019-05-03T19:48:45.481Z,17.70
2019-05-03T19:51:13.820Z,17.30
2019-05-03T19:53:54.869Z,17.65
2019-05-03T19:56:22.757Z,16.70
2019-05-03T19:58:52.751Z,17.00
2019-05-03T20:01:22.718Z,16.90
2019-05-03T20:03:58.866Z,12.55
2019-05-03T20:06:35.000Z,18.48
2019-05-03T20:09:10.829Z,17.95
2019-05-03T20:11:39.130Z,17.12
2019-05-03T20:14:07.442Z,17.25
2019-05-03T20:16:35.775Z,21.42
2019-05-03T20:19:17.217Z,16.65
2019-05-03T20:21:34.362Z,16.37
2019-05-03T20:24:02.695Z,18.07
2019-05-03T20:26:30.997Z,16.23
2019-05-03T20:28:59.307Z,17.62
2019-05-03T20:31:27.652Z,17.80
2019-05-03T20:33:55.971Z,17.02
2019-05-03T20:36:24.259Z,17.10
2019-05-03T20:38:52.597Z,17.60
2019-05-03T20:41:20.883Z,19.00
2019-05-03T20:43:59.644Z,15.95
2019-05-03T20:46:42.219Z,16.75
2019-05-03T20:49:12.270Z,19.82
2019-05-03T20:51:40.616Z,19.82
2019-05-03T20:54:08.918Z,19.95
2019-05-03T20:56:37.261Z,19.87
2019-05-03T20:59:05.564Z,20.85
2019-05-03T21:01:34.769Z,20.35
2019-05-03T21:04:04.780Z,20.17
2019-05-03T21:06:35.847Z,21.77
2019-05-03T21:09:04.739Z,22.05
2019-05-03T21:11:33.092Z,21.60
2019-05-03T21:14:01.390Z,23.32
2019-05-03T21:16:31.352Z,21.97
2019-05-03T21:19:04.966Z,19.40
2019-05-03T21:21:37.770Z,18.90
2019-05-03T21:24:07.496Z,22.77
2019-05-03T21:26:35.811Z,22.35
2019-05-03T21:29:04.806Z,26.17
2019-05-03T21:31:35.201Z,23.25
2019-05-03T21:34:05.505Z,22.55
2019-05-03T21:36:34.864Z,24.02
2019-05-03T21:39:05.332Z,25.45
2019-05-03T21:41:35.256Z,26.62
2019-05-03T21:44:04.817Z,28.30
2019-05-03T21:46:37.830Z,29.10
2019-05-03T21:49:10.455Z,27.20
2019-05-03T21:51:38.783Z,26.05
2019-05-03T21:54:07.111Z,27.75
2019-05-03T21:56:35.711Z,26.68
2019-05-03T21:59:05.592Z,27.85
2019-05-03T22:01:37.471Z,34.92
2019-05-03T22:04:05.495Z,33.65
2019-05-03T22:06:35.060Z,31.40
2019-05-03T22:09:04.623Z,33.20
2019-05-03T22:11:33.026Z,33.78
2019-05-03T22:14:04.539Z,33.53
2019-05-03T22:16:40.342Z,32.40
2019-05-03T22:19:08.669Z,33.20
2019-05-03T22:21:45.280Z,34.65
2019-05-03T22:24:25.265Z,30.37
2019-05-03T22:26:55.518Z,33.73
2019-05-03T22:29:25.447Z,35.58
2019-05-03T22:31:54.830Z,33.00
2019-05-03T22:34:25.487Z,35.70
2019-05-03T22:36:54.862Z,22.43
2019-05-03T22:39:25.036Z,21.13
2019-05-03T22:41:53.228Z,19.30
2019-05-03T22:44:21.871Z,19.62
2019-05-03T22:46:50.218Z,17.85
2019-05-03T22:49:18.532Z,18.15
2019-05-03T22:51:46.845Z,16.97
2019-05-03T22:54:15.477Z,19.25
2019-05-03T22:56:44.766Z,16.48
2019-05-03T22:59:14.725Z,19.90
2019-05-03T23:01:45.590Z,15.57
2019-05-03T23:04:14.638Z,17.52
2019-05-03T23:06:46.740Z,19.27
2019-05-03T23:09:15.654Z,19.02
2019-05-03T23:11:44.729Z,19.20
2019-05-03T23:14:15.088Z,20.50
2019-05-03T23:16:44.923Z,24.23
2019-05-03T23:19:14.883Z,23.38
2019-05-03T23:21:45.199Z,22.93
2019-05-03T23:24:15.422Z,22.35
2019-05-03T23:26:45.200Z,15.08
2019-05-03T23:29:13.720Z,15.70
2019-05-03T23:31:42.028Z,15.75
2019-05-03T23:34:10.396Z,15.13
2019-05-03T23:36:38.710Z,14.05
2019-05-03T23:39:07.931Z,11.95
2019-05-03T23:41:36.309Z,11.97
2019-05-03T23:44:04.830Z,9.33
2019-05-03T23:46:35.011Z,8.33
2019-05-03T23:49:03.331Z,7.97
2019-05-03T23:51:51.574Z,9.38
2019-05-03T23:54:19.888Z,8.95
2019-05-03T23:56:48.176Z,8.55
2019-05-03T23:59:16.835Z,6.60
